Aérodrome :
LOGIN :

S'inscrire | Disclaimer

   EN    FR    IT 

 










Légende :    VFR   VFR Marginal   IFR   IFR Intensif   IFR Très Intensif
Visi : 
Plafond : 
>= 8 km
>= 3000ft
5 à 8 km
1000 à 3000 ft
1500m à 5 km
500 à 1000 ft
800 à 1500m
200 à 500 ft
< 800m
< 200 ft
Symboles :   Orages  Brouillard  Fortes neiges  Fortes précipitations  Vent > 20 kt
SIGMETs :   Divers  Orages  Givrage  Turbulence  Onde Orograph.  Cendres Volcan.







- Altitude de l'aérodrome : 138 ft
- Code IATA : RLG


ETNL - Rostock Laage

DERNIER METAR :
  • 201420Z 26008KT 9999 VCSH FEW015 SCT033 BKN050 15/11 Q1017 BLU BLU TEMPO WHT

METARs EXPIRÉS :
  • 201320Z 25011KT 9999 FEW016 BKN021 BKN028 15/11 Q1017 WHT BLU TEMPO WHT
  • 201220Z 26010KT 9999 FEW010 BKN024 BKN080 14/12 Q1016 WHT BLU TEMPO GRN
  • 201208Z 24008KT 9000 FEW006 BKN011 BKN020 13/12 Q1016 GRN BLU TEMPO GRN
  • 201142Z 24007KT 4000 -DZ FEW007 BKN010 13/11 Q1016 GRN BLU TEMPO GRN

TAF TAF ETNL
Valide du 20 à 14h jusqu'au 20 à 23h UTC


201320Z 2014/2023 24008KT 9999 NSW FEW020 BKN030
TEMPO 2014/2016 25010KT 5000 -RA SCT012 BKN020 BY ETGL
Pas de NOTAMs connus pour ce terrain.



MET'MAP, la Météo Aéronautique d'un coup d'oeil ! - Copyright ORBIFLY Décembre 2007 - Disclaimer

ORBIFLY MET'MAP TEAM :

Programmation & Développement : Alexandra Zaïnal
Conception & Développement : Baudouin d'Aumeries
Co-Programmation & Développement : Marc-Olivier Méhu
Soutien technique & logistique : Manuel Goepfert

Contact : metmap@orbifly.com




SOURCES & CREDITS :

   NOAA